createdAt,value
2022-10-14T00:00:36.954Z,76273.94
2022-10-14T00:03:06.159Z,76284.16
2022-10-14T00:05:34.269Z,76282.09
2022-10-14T00:08:02.115Z,76286.19
2022-10-14T00:10:29.886Z,76278.03
2022-10-14T00:12:57.692Z,76276.00
2022-10-14T00:15:25.584Z,76273.94
2022-10-14T00:17:53.384Z,76269.88
2022-10-14T00:20:22.696Z,76265.78
2022-10-14T00:22:50.554Z,76265.78
2022-10-14T00:25:18.958Z,76261.72
2022-10-14T00:27:46.782Z,76257.63
2022-10-14T00:30:14.695Z,76257.63
2022-10-14T00:32:42.504Z,76251.53
2022-10-14T00:35:10.695Z,76245.41
2022-10-14T00:37:40.005Z,76237.25
2022-10-14T00:40:08.586Z,76237.25
2022-10-14T00:42:36.575Z,76241.31
2022-10-14T00:45:11.817Z,76259.69
2022-10-14T00:47:40.579Z,76261.72
2022-10-14T00:50:09.548Z,76271.91
2022-10-14T00:52:37.454Z,76271.91
2022-10-14T00:55:11.229Z,76255.59
2022-10-14T00:57:39.526Z,76245.41
2022-10-14T01:00:09.880Z,76239.28
2022-10-14T01:02:37.926Z,76241.31
2022-10-14T01:05:08.130Z,76245.41
2022-10-14T01:07:45.308Z,76251.53
2022-10-14T01:10:25.492Z,76259.69
2022-10-14T01:13:05.409Z,76257.63
2022-10-14T01:15:39.702Z,76245.41
2022-10-14T01:18:23.041Z,76245.41
2022-10-14T01:21:04.889Z,76257.63
2022-10-14T01:24:05.725Z,76269.88
2022-10-14T01:26:51.838Z,76261.72
2022-10-14T01:29:40.081Z,76269.88
2022-10-14T01:32:14.062Z,76265.78
2022-10-14T01:34:50.842Z,76247.44
2022-10-14T01:37:25.126Z,76255.59
2022-10-14T01:39:58.354Z,76257.63
2022-10-14T01:42:29.689Z,76257.63
2022-10-14T01:45:03.967Z,76249.47
2022-10-14T01:47:34.053Z,76241.31
2022-10-14T01:50:05.795Z,76233.16
2022-10-14T01:52:37.821Z,76235.22
2022-10-14T01:55:10.878Z,76235.22
2022-10-14T01:57:42.303Z,76229.09
2022-10-14T02:00:12.827Z,76225.00
2022-10-14T02:02:41.746Z,76229.09
2022-10-14T02:05:15.446Z,76225.00
2022-10-14T02:07:48.068Z,76218.91
2022-10-14T02:10:30.881Z,76222.97
2022-10-14T02:13:19.326Z,76210.75
2022-10-14T02:15:59.070Z,76206.66
2022-10-14T02:18:36.466Z,76200.56
2022-10-14T02:21:10.407Z,76200.56
2022-10-14T02:23:43.445Z,76204.63
2022-10-14T02:26:12.071Z,76200.56
2022-10-14T02:28:43.453Z,76204.63
2022-10-14T02:31:17.243Z,76206.66
2022-10-14T02:33:51.272Z,76200.56
2022-10-14T02:36:24.069Z,76198.50
2022-10-14T02:38:54.940Z,76196.47
2022-10-14T02:41:26.214Z,76188.31
2022-10-14T02:43:54.185Z,76192.41
2022-10-14T02:46:23.872Z,76192.41
2022-10-14T02:48:51.922Z,76196.47
2022-10-14T02:51:19.802Z,76194.44
2022-10-14T02:53:47.651Z,76200.56
2022-10-14T02:56:18.858Z,76200.56
2022-10-14T02:58:46.704Z,76198.50
2022-10-14T03:01:14.500Z,76198.50
2022-10-14T03:03:43.677Z,76196.47
2022-10-14T03:06:11.618Z,76200.56
2022-10-14T03:08:39.599Z,76202.59
2022-10-14T03:11:07.385Z,76200.56
2022-10-14T03:13:35.223Z,76208.69
2022-10-14T03:16:03.056Z,76206.66
2022-10-14T03:18:31.377Z,76204.63
2022-10-14T03:21:00.564Z,76202.59
2022-10-14T03:23:28.378Z,76208.69
2022-10-14T03:25:56.167Z,76206.66
2022-10-14T03:28:24.118Z,76208.69
2022-10-14T03:30:51.939Z,76212.78
2022-10-14T03:33:20.694Z,76216.84
2022-10-14T03:35:48.651Z,76216.84
2022-10-14T03:38:17.854Z,76216.84
2022-10-14T03:40:45.792Z,76216.84
2022-10-14T03:43:13.672Z,76210.75
2022-10-14T03:45:41.555Z,76212.78
2022-10-14T03:48:09.555Z,76208.69
2022-10-14T03:50:37.482Z,76212.78
2022-10-14T03:53:05.376Z,76208.69
2022-10-14T03:55:34.582Z,76212.78
2022-10-14T03:58:02.437Z,76225.00
2022-10-14T04:00:30.326Z,76225.00
2022-10-14T04:02:58.152Z,76229.09
2022-10-14T04:05:26.011Z,76225.00
2022-10-14T04:07:53.866Z,76225.00
2022-10-14T04:10:21.684Z,76225.00
2022-10-14T04:12:51.811Z,76235.22
2022-10-14T04:15:19.602Z,76241.31
2022-10-14T04:17:47.499Z,76239.28
2022-10-14T04:20:15.661Z,76225.00
2022-10-14T04:22:43.718Z,76204.63
2022-10-14T04:25:11.549Z,76200.56
2022-10-14T04:27:39.451Z,76180.16
2022-10-14T04:30:10.738Z,76155.69
2022-10-14T04:32:38.526Z,76137.34
2022-10-14T04:35:07.375Z,76131.22
2022-10-14T04:37:35.156Z,76125.13
2022-10-14T04:40:06.640Z,76127.16
2022-10-14T04:42:34.480Z,76123.06
2022-10-14T04:45:02.275Z,76116.97
2022-10-14T04:47:31.460Z,76106.75
2022-10-14T04:49:59.297Z,76106.75
2022-10-14T04:52:27.091Z,76100.66
2022-10-14T04:54:54.946Z,76098.59
2022-10-14T04:57:22.829Z,76088.41
2022-10-14T04:59:50.601Z,76090.44
2022-10-14T05:02:18.493Z,76088.41
2022-10-14T05:04:47.739Z,76084.34
2022-10-14T05:07:15.614Z,76086.38
2022-10-14T05:09:48.525Z,76072.09
2022-10-14T05:12:17.788Z,76070.06
2022-10-14T05:14:45.701Z,76072.09
2022-10-14T05:17:13.489Z,76061.91
2022-10-14T05:19:41.346Z,76061.91
2022-10-14T05:22:10.527Z,76057.84
2022-10-14T05:24:38.326Z,76053.75
2022-10-14T05:27:06.175Z,76053.75
2022-10-14T05:29:33.991Z,76051.72
2022-10-14T05:32:01.781Z,76051.72
2022-10-14T05:34:29.625Z,76053.75
2022-10-14T05:36:57.429Z,76051.72
2022-10-14T05:39:26.602Z,76053.75
2022-10-14T05:41:54.432Z,76049.69
2022-10-14T05:44:22.259Z,76051.72
2022-10-14T05:46:50.026Z,76043.56
2022-10-14T05:49:17.868Z,76045.59
2022-10-14T05:51:45.741Z,76037.44
2022-10-14T05:54:13.747Z,76037.44
2022-10-14T05:56:43.053Z,76029.28
2022-10-14T05:59:11.034Z,76027.25
2022-10-14T06:01:39.063Z,76021.13
2022-10-14T06:04:07.124Z,76025.22
2022-10-14T06:06:34.967Z,76023.19
2022-10-14T06:09:03.982Z,76010.94
2022-10-14T06:11:33.378Z,76008.91
2022-10-14T06:14:02.510Z,76004.81
2022-10-14T06:16:30.367Z,76004.81
2022-10-14T06:18:58.288Z,76008.91
2022-10-14T06:21:26.481Z,76008.91
2022-10-14T06:23:54.421Z,76004.81
2022-10-14T06:26:22.249Z,76004.81
2022-10-14T06:28:50.105Z,76000.75
2022-10-14T06:31:19.338Z,75992.59
2022-10-14T06:33:47.202Z,75992.59
2022-10-14T06:36:15.106Z,75988.50
2022-10-14T06:38:42.888Z,75984.44
2022-10-14T06:41:10.976Z,75982.41
2022-10-14T06:43:38.945Z,75974.25
2022-10-14T06:46:07.238Z,75962.00
2022-10-14T06:48:36.452Z,75953.84
2022-10-14T06:51:04.556Z,75947.75
2022-10-14T06:53:32.595Z,75939.59
2022-10-14T06:56:01.753Z,75937.53
2022-10-14T06:58:30.426Z,75929.41
2022-10-14T07:01:02.294Z,75939.59
2022-10-14T07:03:30.200Z,75939.59
2022-10-14T07:05:59.350Z,75927.34
2022-10-14T07:08:27.147Z,75927.34
2022-10-14T07:10:55.001Z,75921.25
2022-10-14T07:13:22.798Z,75919.19
2022-10-14T07:15:51.995Z,75919.19
2022-10-14T07:18:19.957Z,75923.28
2022-10-14T07:20:47.768Z,75915.13
2022-10-14T07:23:16.994Z,75919.19
2022-10-14T07:25:45.116Z,75913.09
2022-10-14T07:28:12.939Z,75902.88
2022-10-14T07:30:40.850Z,75890.66
2022-10-14T07:33:08.715Z,75890.66
2022-10-14T07:35:38.754Z,75890.66
2022-10-14T07:38:06.555Z,75882.50
2022-10-14T07:40:35.953Z,75870.28
2022-10-14T07:43:03.817Z,75876.38
2022-10-14T07:45:35.576Z,75872.31
2022-10-14T07:48:03.481Z,75870.28
2022-10-14T07:50:31.347Z,75868.22
2022-10-14T07:53:01.338Z,75858.03
2022-10-14T07:55:29.552Z,75853.97
2022-10-14T07:57:58.938Z,75851.91
2022-10-14T08:00:26.773Z,75843.75
2022-10-14T08:02:55.161Z,75833.56
2022-10-14T08:05:37.498Z,75833.56
2022-10-14T08:08:06.784Z,75841.72
2022-10-14T08:10:34.680Z,75833.56
2022-10-14T08:13:04.010Z,75827.47
2022-10-14T08:15:35.333Z,75835.63
2022-10-14T08:18:03.110Z,75825.41
2022-10-14T08:20:30.900Z,75829.50
2022-10-14T08:22:58.812Z,75829.50
2022-10-14T08:25:26.836Z,75833.56
2022-10-14T08:27:57.374Z,75837.66
2022-10-14T08:30:26.616Z,75829.50
2022-10-14T08:32:55.258Z,75819.31
2022-10-14T08:35:23.051Z,75815.22
2022-10-14T08:37:58.228Z,75805.03
2022-10-14T08:40:28.536Z,75798.91
2022-10-14T08:43:02.273Z,75792.81
2022-10-14T08:45:36.711Z,75780.56
2022-10-14T08:48:13.475Z,75774.47
2022-10-14T08:50:47.750Z,75760.19
2022-10-14T08:53:19.311Z,75754.06
2022-10-14T08:55:49.277Z,75741.84
2022-10-14T08:58:22.642Z,75735.72
2022-10-14T09:00:54.003Z,75723.50
2022-10-14T09:03:23.483Z,75707.19
2022-10-14T09:05:58.518Z,75694.94
2022-10-14T09:08:31.764Z,75678.63
2022-10-14T09:11:00.013Z,75676.59
2022-10-14T09:13:31.935Z,75668.44
2022-10-14T09:16:05.206Z,75658.25
2022-10-14T09:18:37.750Z,75654.19
2022-10-14T09:21:34.117Z,75648.06
2022-10-14T09:24:13.965Z,75629.72
2022-10-14T09:26:43.985Z,75621.56
2022-10-14T09:29:24.318Z,75586.91
2022-10-14T09:31:57.453Z,75554.28
2022-10-14T09:34:31.331Z,75507.41
2022-10-14T09:37:07.309Z,75482.94
2022-10-14T09:39:39.171Z,75446.25
2022-10-14T09:42:14.351Z,75401.41
2022-10-14T09:44:42.288Z,75417.72
2022-10-14T09:47:14.249Z,75403.44
2022-10-14T09:49:45.786Z,75446.25
2022-10-14T09:52:23.797Z,75485.00
2022-10-14T09:54:56.257Z,75507.41
2022-10-14T09:57:25.963Z,75482.94
2022-10-14T09:59:57.522Z,75413.66
2022-10-14T10:02:38.207Z,75411.59
2022-10-14T10:05:13.810Z,75446.25
2022-10-14T10:07:41.588Z,75409.56
2022-10-14T10:10:18.841Z,75413.66
2022-10-14T10:12:47.249Z,75421.78
2022-10-14T10:15:21.304Z,75417.72
2022-10-14T10:17:51.474Z,75366.75
2022-10-14T10:20:28.181Z,75354.53
2022-10-14T10:22:56.861Z,75315.81
2022-10-14T10:25:28.116Z,75283.19
2022-10-14T10:28:00.305Z,75244.47
2022-10-14T10:30:32.310Z,75226.13
2022-10-14T10:33:23.045Z,75189.44
2022-10-14T10:36:04.340Z,75185.34
2022-10-14T10:38:39.702Z,75197.56
2022-10-14T10:41:19.974Z,75171.09
2022-10-14T10:44:16.236Z,75181.28
2022-10-14T10:47:09.711Z,75199.63
2022-10-14T10:52:41.152Z,75213.88
2022-10-14T10:55:19.410Z,75254.66
2022-10-14T10:57:57.405Z,75254.66
2022-10-14T11:03:11.378Z,75260.75
2022-10-14T11:05:58.290Z,75258.72
2022-10-14T11:09:04.202Z,75279.09
2022-10-14T11:11:52.472Z,75291.34
2022-10-14T11:14:34.101Z,75279.09
2022-10-14T11:17:11.862Z,75273.00
2022-10-14T11:19:50.366Z,75266.88
2022-10-14T11:22:32.210Z,75258.72
2022-10-14T11:25:07.657Z,75250.56
2022-10-14T11:27:42.403Z,75246.50
2022-10-14T11:30:21.529Z,75236.31
2022-10-14T11:33:15.474Z,75220.00
2022-10-14T11:35:53.854Z,75179.25
2022-10-14T11:38:41.359Z,75152.75
2022-10-14T11:41:18.407Z,75140.50
2022-10-14T11:43:53.005Z,75120.13
2022-10-14T11:46:22.308Z,75107.91
2022-10-14T11:48:55.063Z,75095.66
2022-10-14T11:51:33.278Z,75130.31
2022-10-14T11:54:12.684Z,75124.19
2022-10-14T11:56:45.718Z,75144.59
2022-10-14T11:59:42.649Z,75160.88
2022-10-14T12:02:22.070Z,75152.75
2022-10-14T12:04:57.101Z,75156.81
2022-10-14T12:07:31.960Z,75162.94
2022-10-14T12:10:05.398Z,75160.88
2022-10-14T12:12:36.521Z,75160.88
2022-10-14T12:15:07.563Z,75171.09
2022-10-14T12:17:39.861Z,75173.13
2022-10-14T12:20:20.727Z,75169.03
2022-10-14T12:22:51.320Z,75164.97
2022-10-14T12:25:23.720Z,75160.88
2022-10-14T12:27:52.792Z,75156.81
2022-10-14T12:30:35.998Z,75156.81
2022-10-14T12:33:05.914Z,75138.47
2022-10-14T12:35:59.221Z,75126.25
2022-10-14T12:38:29.031Z,75105.84
2022-10-14T12:41:33.055Z,75103.81
2022-10-14T12:44:02.964Z,75085.47
2022-10-14T12:46:31.460Z,75087.50
2022-10-14T12:49:00.427Z,75071.22
2022-10-14T12:51:28.441Z,75054.91
2022-10-14T12:54:07.218Z,75038.59
2022-10-14T12:56:40.061Z,75042.69
2022-10-14T12:59:10.273Z,75048.78
2022-10-14T13:01:38.684Z,75034.53
2022-10-14T13:04:19.961Z,75036.56
2022-10-14T13:07:45.808Z,75042.69
2022-10-14T13:10:50.636Z,75069.16
2022-10-14T13:13:59.151Z,75087.50
2022-10-14T13:17:10.914Z,75077.31
2022-10-14T13:19:44.651Z,75071.22
2022-10-14T13:22:41.112Z,75073.25
2022-10-14T13:25:16.107Z,75050.81
2022-10-14T13:27:52.561Z,75042.69
2022-10-14T13:30:33.859Z,75046.75
2022-10-14T13:33:12.789Z,75063.06
2022-10-14T13:35:50.330Z,75077.31
2022-10-14T13:38:20.457Z,75081.41
2022-10-14T13:40:50.917Z,75085.47
2022-10-14T13:43:26.684Z,75095.66
2022-10-14T13:46:00.351Z,75103.81
2022-10-14T13:48:31.780Z,75087.50
2022-10-14T13:51:24.527Z,75069.16
2022-10-14T13:54:10.884Z,75073.25
2022-10-14T13:56:38.725Z,75077.31
2022-10-14T13:59:39.286Z,75075.28
2022-10-14T14:02:15.469Z,75083.44
2022-10-14T14:04:49.160Z,75093.63
2022-10-14T14:07:59.063Z,75097.72
2022-10-14T14:10:11.857Z,75103.81
2022-10-14T14:12:44.040Z,75093.63
2022-10-14T14:15:19.754Z,75093.63
2022-10-14T14:17:48.972Z,75091.59
2022-10-14T14:20:21.442Z,75095.66
2022-10-14T14:22:49.320Z,75099.75
2022-10-14T14:25:33.854Z,75095.66
2022-10-14T14:28:05.722Z,75099.75
2022-10-14T14:30:35.808Z,75103.81
2022-10-14T14:33:08.449Z,75114.00
2022-10-14T14:35:36.285Z,75116.06
2022-10-14T14:38:04.359Z,75116.06
2022-10-14T14:40:32.844Z,75111.97
2022-10-14T14:43:03.192Z,75107.91
2022-10-14T14:45:33.233Z,75116.06
2022-10-14T14:48:05.988Z,75116.06
2022-10-14T14:50:36.818Z,75111.97
2022-10-14T14:53:08.369Z,75118.09
2022-10-14T14:55:39.874Z,75116.06
2022-10-14T14:58:23.087Z,75107.91
2022-10-14T15:00:52.858Z,75101.78
2022-10-14T15:03:23.064Z,75099.75
2022-10-14T15:05:52.532Z,75103.81
2022-10-14T15:08:23.932Z,75111.97
2022-10-14T15:10:53.942Z,75107.91
2022-10-14T15:13:31.161Z,75103.81
2022-10-14T15:15:59.297Z,75097.72
2022-10-14T15:18:30.422Z,75099.75
2022-10-14T15:21:07.788Z,75103.81
2022-10-14T15:23:58.482Z,75111.97
2022-10-14T15:26:31.922Z,75120.13
2022-10-14T15:29:13.967Z,75130.31
2022-10-14T15:31:44.318Z,75156.81
2022-10-14T15:34:23.829Z,75171.09
2022-10-14T15:36:54.106Z,75181.28
2022-10-14T15:39:22.898Z,75191.47
2022-10-14T15:41:50.862Z,75193.50
2022-10-14T15:44:18.672Z,75205.72
2022-10-14T15:47:04.919Z,75211.84
2022-10-14T15:49:37.142Z,75224.06
2022-10-14T15:52:05.071Z,75234.28
2022-10-14T15:54:32.901Z,75254.66
2022-10-14T15:57:00.827Z,75266.88
2022-10-14T15:59:28.759Z,75281.16
2022-10-14T16:01:56.651Z,75289.31
2022-10-14T16:04:27.681Z,75303.56
2022-10-14T16:06:58.073Z,75309.69
2022-10-14T16:09:27.771Z,75319.88
2022-10-14T16:11:58.116Z,75328.03
2022-10-14T16:14:27.037Z,75336.19
2022-10-14T16:16:55.137Z,75340.25
2022-10-14T16:19:23.482Z,75352.50
2022-10-14T16:21:51.266Z,75356.56
2022-10-14T16:24:25.391Z,75364.72
2022-10-14T16:26:54.660Z,75362.69
2022-10-14T16:29:22.856Z,75370.84
2022-10-14T16:31:51.295Z,75381.03
2022-10-14T16:34:20.511Z,75393.25
2022-10-14T16:36:48.852Z,75397.34
2022-10-14T16:39:17.362Z,75397.34
2022-10-14T16:41:46.719Z,75417.72
2022-10-14T16:44:25.219Z,75423.84
2022-10-14T16:47:11.275Z,75434.03
2022-10-14T16:49:39.667Z,75446.25
2022-10-14T16:52:08.095Z,75454.41
2022-10-14T16:54:35.921Z,75458.50
2022-10-14T16:57:05.838Z,75470.72
2022-10-14T16:59:33.999Z,75474.78
2022-10-14T17:02:02.360Z,75485.00
2022-10-14T17:04:30.152Z,75482.94
2022-10-14T17:06:58.017Z,75489.06
2022-10-14T17:09:25.992Z,75501.28
2022-10-14T17:11:54.743Z,75507.41
2022-10-14T17:14:24.326Z,75519.63
2022-10-14T17:16:52.657Z,75525.75
2022-10-14T17:19:21.061Z,75521.69
2022-10-14T17:21:49.085Z,75523.72
2022-10-14T17:24:17.083Z,75525.75
2022-10-14T17:26:45.829Z,75527.78
2022-10-14T17:29:13.686Z,75531.88
2022-10-14T17:31:42.866Z,75529.84
2022-10-14T17:34:11.451Z,75542.06
2022-10-14T17:36:40.057Z,75537.97
2022-10-14T17:39:16.329Z,75544.09
2022-10-14T17:41:49.234Z,75552.25
2022-10-14T17:44:17.064Z,75552.25
2022-10-14T17:46:46.273Z,75560.41
2022-10-14T17:49:15.076Z,75564.47
2022-10-14T17:51:43.103Z,75568.56
2022-10-14T17:54:12.930Z,75568.56
2022-10-14T17:56:41.394Z,75578.75
2022-10-14T17:59:13.982Z,75601.19
2022-10-14T18:04:32.563Z,75631.75
2022-10-14T18:07:00.942Z,75637.88
2022-10-14T18:09:28.919Z,75641.94
2022-10-14T18:12:13.164Z,75652.13
2022-10-14T18:14:41.959Z,75660.28
2022-10-14T18:17:12.251Z,75658.25
2022-10-14T18:19:42.161Z,75662.34
2022-10-14T18:22:11.222Z,75658.25
2022-10-14T18:24:39.352Z,75662.34
2022-10-14T18:27:07.573Z,75664.38
2022-10-14T18:29:35.443Z,75670.50
2022-10-14T18:32:03.269Z,75672.53
2022-10-14T18:34:31.208Z,75682.72
2022-10-14T18:37:00.446Z,75682.72
2022-10-14T18:39:28.413Z,75682.72
2022-10-14T18:41:56.216Z,75682.72
2022-10-14T18:44:24.124Z,75686.78
2022-10-14T18:46:51.928Z,75694.94
2022-10-14T18:49:19.754Z,75713.28
2022-10-14T18:51:47.589Z,75727.56
2022-10-14T18:54:18.403Z,75731.66
2022-10-14T18:56:47.338Z,75729.59
2022-10-14T18:59:17.921Z,75735.72
2022-10-14T19:01:47.000Z,75733.69
2022-10-14T19:04:16.717Z,75725.53
2022-10-14T19:06:48.844Z,75717.38
2022-10-14T19:09:20.869Z,75717.38
2022-10-14T19:11:51.151Z,75715.34
2022-10-14T19:14:19.022Z,75715.34
2022-10-14T19:16:47.578Z,75709.22
2022-10-14T19:19:18.501Z,75711.25
2022-10-14T19:21:48.637Z,75719.41
2022-10-14T19:24:17.946Z,75711.25
2022-10-14T19:26:48.030Z,75715.34
2022-10-14T19:29:16.793Z,75721.44
2022-10-14T19:31:45.326Z,75731.66
2022-10-14T19:34:15.493Z,75735.72
2022-10-14T19:36:44.176Z,75739.81
2022-10-14T19:39:14.400Z,75747.94
2022-10-14T19:41:44.870Z,75760.19
2022-10-14T19:44:14.419Z,75752.03
2022-10-14T19:46:42.685Z,75743.88
2022-10-14T19:49:12.900Z,75737.75
2022-10-14T19:51:40.876Z,75752.03
2022-10-14T19:54:10.381Z,75756.09
2022-10-14T19:56:38.197Z,75756.09
2022-10-14T19:59:07.722Z,75754.06
2022-10-14T20:01:35.790Z,75747.94
2022-10-14T20:04:04.185Z,75752.03
2022-10-14T20:06:34.330Z,75760.19
2022-10-14T20:09:02.461Z,75756.09
2022-10-14T20:11:30.310Z,75756.09
2022-10-14T20:13:58.588Z,75758.16
2022-10-14T20:16:28.090Z,75756.09
2022-10-14T20:18:56.397Z,75752.03
2022-10-14T20:21:24.718Z,75758.16
2022-10-14T20:23:52.561Z,75760.19
2022-10-14T20:26:21.911Z,75758.16
2022-10-14T20:28:50.193Z,75756.09
2022-10-14T20:31:20.493Z,75752.03
2022-10-14T20:33:49.672Z,75760.19
2022-10-14T20:36:19.174Z,75756.09
2022-10-14T20:38:47.907Z,75752.03
2022-10-14T20:41:18.016Z,75750.00
2022-10-14T20:43:46.585Z,75764.25
2022-10-14T20:46:15.068Z,75764.25
2022-10-14T20:48:43.258Z,75770.38
2022-10-14T20:51:14.961Z,75768.34
2022-10-14T20:53:43.130Z,75768.34
2022-10-14T20:56:13.252Z,75762.22
2022-10-14T20:58:41.586Z,75756.09
2022-10-14T21:01:11.041Z,75760.19
2022-10-14T21:03:39.707Z,75760.19
2022-10-14T21:06:10.635Z,75762.22
2022-10-14T21:08:40.227Z,75743.88
2022-10-14T21:11:13.732Z,75735.72
2022-10-14T21:13:45.411Z,75733.69
2022-10-14T21:16:15.229Z,75733.69
2022-10-14T21:18:46.844Z,75735.72
2022-10-14T21:21:16.783Z,75727.56
2022-10-14T21:23:46.504Z,75719.41
2022-10-14T21:26:14.603Z,75711.25
2022-10-14T21:28:42.479Z,75711.25
2022-10-14T21:31:14.782Z,75707.19
2022-10-14T21:33:45.363Z,75703.09
2022-10-14T21:36:15.062Z,75694.94
2022-10-14T21:38:43.135Z,75686.78
2022-10-14T21:41:12.614Z,75678.63
2022-10-14T21:43:41.337Z,75676.59
2022-10-14T21:46:10.850Z,75670.50
2022-10-14T21:48:38.969Z,75670.50
2022-10-14T21:51:10.336Z,75670.50
2022-10-14T21:53:39.134Z,75666.41
2022-10-14T21:56:07.774Z,75666.41
2022-10-14T21:58:37.611Z,75660.28
2022-10-14T22:01:07.988Z,75656.22
2022-10-14T22:03:37.159Z,75650.09
2022-10-14T22:06:07.087Z,75654.19
2022-10-14T22:08:36.663Z,75646.03
2022-10-14T22:11:05.708Z,75633.78
2022-10-14T22:13:37.448Z,75641.94
2022-10-14T22:16:05.534Z,75635.84
2022-10-14T22:18:33.514Z,75637.88
2022-10-14T22:21:04.996Z,75637.88
2022-10-14T22:23:33.307Z,75629.72
2022-10-14T22:26:02.099Z,75637.88
2022-10-14T22:28:30.984Z,75637.88
2022-10-14T22:31:06.312Z,75637.88
2022-10-14T22:33:35.411Z,75631.75
2022-10-14T22:36:08.205Z,75627.69
2022-10-14T22:38:36.759Z,75625.63
2022-10-14T22:41:06.054Z,75625.63
2022-10-14T22:43:34.334Z,75633.78
2022-10-14T22:46:02.546Z,75623.59
2022-10-14T22:48:32.276Z,75619.53
2022-10-14T22:51:04.121Z,75627.69
2022-10-14T22:53:32.364Z,75633.78
2022-10-14T22:56:00.383Z,75633.78
2022-10-14T22:58:28.682Z,75629.72
2022-10-14T23:00:56.855Z,75621.56
2022-10-14T23:03:25.529Z,75613.41
2022-10-14T23:05:54.671Z,75613.41
2022-10-14T23:08:22.531Z,75601.19
2022-10-14T23:10:50.519Z,75597.09
2022-10-14T23:13:18.341Z,75593.03
2022-10-14T23:15:55.929Z,75599.13
2022-10-14T23:18:24.436Z,75599.13
2022-10-14T23:20:54.260Z,75601.19
2022-10-14T23:23:22.279Z,75593.03
2022-10-14T23:25:50.127Z,75588.94
2022-10-14T23:28:18.023Z,75580.78
2022-10-14T23:30:45.906Z,75574.69
2022-10-14T23:33:13.710Z,75580.78
2022-10-14T23:35:41.555Z,75584.88
2022-10-14T23:38:12.720Z,75582.84
2022-10-14T23:40:40.543Z,75574.69
2022-10-14T23:43:08.432Z,75576.72
2022-10-14T23:45:36.251Z,75572.63
2022-10-14T23:48:04.268Z,75574.69
2022-10-14T23:50:32.145Z,75574.69
2022-10-14T23:52:59.943Z,75586.91
2022-10-14T23:55:29.093Z,75584.88
2022-10-14T23:57:57.052Z,75584.88
